Portada
METAR-TAF:

METAR-TAF

Aeroports :

Statesville Regional Airport

Statesville, Carolina del Nord, Estats Units d'Amèrica

latitud: 35-45-55N, longitud: 080-57-24W, altitud: 294 m

Observació

L'informe es va fer fa 18 minuts, a les 08:35 UTC
Vent calma
Temperatura 22°C
Humitat 88%
Pressió 1013 hPa
Visibilitat: 16.1 km
Cel cobert a una alçada de 1300 ft

METAR: KSVH 090835Z AUTO 00000KT 10SM OVC013 22/20 A2991 RMK AO2 T02180201

Hora: 04:53 (08:53 UTC)


TAF: manca

Observacions i pronòstics meteorològics de més de 4000 aeroports (METAR i TAF).

Les estacions disponibles són els punts grocs i vermells al mapa.

Posi el ratolí al punt desitjat per veure el nom de l'estació.

Feu clic per veure les observacions i els pronòstics meteorològics.

Per canviar el mapa: feu clic els botons verds amb una creu de color negre per apropar; al botó verd amb un guió per allunyar la imatge; o en les fletxes verdes per a mapes adjacents.


METAR-TAF: